createdAt,value
2019-02-25T00:01:37.812Z,44.77
2019-02-25T00:04:08.377Z,46.90
2019-02-25T00:06:38.931Z,45.00
2019-02-25T00:09:09.530Z,46.47
2019-02-25T00:11:40.445Z,46.70
2019-02-25T00:14:10.809Z,45.70
2019-02-25T00:16:42.027Z,45.37
2019-02-25T00:19:12.357Z,44.70
2019-02-25T00:21:42.745Z,44.70
2019-02-25T00:24:13.058Z,44.77
2019-02-25T00:26:43.482Z,43.30
2019-02-25T00:29:13.882Z,43.95
2019-02-25T00:31:44.337Z,42.00
2019-02-25T00:34:14.697Z,40.73
2019-02-25T00:36:45.449Z,41.83
2019-02-25T00:39:15.945Z,42.57
2019-02-25T00:41:46.439Z,42.37
2019-02-25T00:44:16.864Z,41.28
2019-02-25T00:46:47.546Z,40.73
2019-02-25T00:49:18.483Z,42.83
2019-02-25T00:51:49.329Z,42.43
2019-02-25T00:54:19.784Z,42.23
2019-02-25T00:56:51.201Z,40.70
2019-02-25T00:59:21.621Z,41.20
2019-02-25T01:01:52.082Z,43.20
2019-02-25T01:04:22.585Z,40.03
2019-02-25T01:06:53.095Z,39.73
2019-02-25T01:09:23.574Z,39.50
2019-02-25T01:11:54.061Z,41.10
2019-02-25T01:14:24.485Z,39.93
2019-02-25T01:16:54.887Z,41.57
2019-02-25T01:19:25.320Z,40.70
2019-02-25T01:21:56.093Z,40.13
2019-02-25T01:24:26.418Z,41.47
2019-02-25T01:26:57.270Z,39.83
2019-02-25T01:29:27.606Z,40.47
2019-02-25T01:31:57.942Z,41.97
2019-02-25T01:34:28.445Z,42.47
2019-02-25T01:36:58.949Z,40.53
2019-02-25T01:39:29.384Z,41.53
2019-02-25T01:41:59.956Z,41.60
2019-02-25T01:44:30.507Z,43.17
2019-02-25T01:47:00.962Z,45.00
2019-02-25T01:49:31.360Z,46.57
2019-02-25T01:52:01.800Z,47.15
2019-02-25T01:54:32.345Z,47.23
2019-02-25T01:57:02.899Z,48.60
2019-02-25T01:59:33.493Z,48.70
2019-02-25T02:02:05.610Z,48.43
2019-02-25T02:04:36.135Z,51.00
2019-02-25T02:07:06.543Z,51.13
2019-02-25T02:09:37.126Z,50.50
2019-02-25T02:12:07.515Z,51.80
2019-02-25T02:14:39.084Z,48.47
2019-02-25T02:17:09.652Z,50.80
2019-02-25T02:19:41.009Z,49.67
2019-02-25T02:22:11.410Z,48.33
2019-02-25T02:24:41.793Z,47.93
2019-02-25T02:27:12.248Z,48.28
2019-02-25T02:29:42.717Z,46.35
2019-02-25T02:32:13.056Z,42.47
2019-02-25T02:34:43.496Z,44.23
2019-02-25T02:37:13.909Z,43.10
2019-02-25T02:39:44.384Z,43.57
2019-02-25T02:42:22.074Z,44.70
2019-02-25T02:44:55.394Z,44.13
2019-02-25T02:47:44.454Z,42.93
2019-02-25T02:50:18.378Z,42.37
2019-02-25T02:52:48.800Z,39.80
2019-02-25T02:55:19.391Z,41.68
2019-02-25T02:57:49.733Z,44.13
2019-02-25T03:00:21.074Z,39.45
2019-02-25T03:02:51.474Z,40.53
2019-02-25T03:05:21.895Z,40.67
2019-02-25T03:07:52.408Z,40.03
2019-02-25T03:10:23.039Z,39.03
2019-02-25T03:12:53.373Z,38.47
2019-02-25T03:15:23.842Z,37.88
2019-02-25T03:17:54.207Z,38.37
2019-02-25T03:20:24.612Z,37.73
2019-02-25T03:22:55.097Z,39.10
2019-02-25T03:25:25.432Z,37.73
2019-02-25T03:27:55.879Z,37.57
2019-02-25T03:30:26.344Z,36.73
2019-02-25T03:32:56.825Z,37.70
2019-02-25T03:35:27.251Z,37.60
2019-02-25T03:37:57.675Z,36.23
2019-02-25T03:40:28.121Z,36.70
2019-02-25T03:42:58.608Z,36.83
2019-02-25T03:45:29.614Z,35.60
2019-02-25T03:48:00.073Z,37.33
2019-02-25T03:50:30.590Z,37.13
2019-02-25T03:53:01.100Z,36.77
2019-02-25T03:55:31.587Z,35.93
2019-02-25T03:58:01.964Z,37.17
2019-02-25T04:00:32.372Z,35.97
2019-02-25T04:03:02.806Z,36.80
2019-02-25T04:05:33.433Z,35.93
2019-02-25T04:08:03.981Z,36.20
2019-02-25T04:10:34.429Z,36.53
2019-02-25T04:13:05.651Z,36.20
2019-02-25T04:15:39.679Z,36.60
2019-02-25T04:18:10.125Z,36.97
2019-02-25T04:20:40.533Z,37.57
2019-02-25T04:23:10.992Z,36.50
2019-02-25T04:25:41.396Z,35.87
2019-02-25T04:28:11.857Z,35.48
2019-02-25T04:30:42.318Z,36.67
2019-02-25T04:33:12.803Z,34.15
2019-02-25T04:35:44.368Z,33.43
2019-02-25T04:38:14.852Z,35.87
2019-02-25T04:40:45.270Z,35.80
2019-02-25T04:43:15.807Z,34.20
2019-02-25T04:45:46.225Z,35.43
2019-02-25T04:48:16.734Z,34.23
2019-02-25T04:50:47.276Z,34.90
2019-02-25T04:53:17.764Z,32.47
2019-02-25T04:55:48.184Z,33.30
2019-02-25T04:58:18.675Z,34.60
2019-02-25T05:00:49.068Z,35.13
2019-02-25T05:03:19.518Z,32.55
2019-02-25T05:05:49.947Z,33.03
2019-02-25T05:08:20.332Z,33.40
2019-02-25T05:10:50.780Z,31.53
2019-02-25T05:13:21.358Z,32.73
2019-02-25T05:15:51.747Z,32.60
2019-02-25T05:18:22.155Z,30.92
2019-02-25T05:20:52.570Z,30.43
2019-02-25T05:23:24.015Z,30.63
2019-02-25T05:25:54.443Z,30.43
2019-02-25T05:28:24.869Z,29.90
2019-02-25T05:30:55.352Z,29.23
2019-02-25T05:33:25.732Z,28.32
2019-02-25T05:35:56.139Z,28.37
2019-02-25T05:38:26.676Z,27.53
2019-02-25T05:40:57.296Z,27.53
2019-02-25T05:43:28.310Z,27.60
2019-02-25T05:45:58.771Z,27.70
2019-02-25T05:48:29.274Z,26.60
2019-02-25T05:50:59.735Z,25.93
2019-02-25T05:53:30.134Z,27.73
2019-02-25T05:56:00.527Z,27.02
2019-02-25T05:58:31.019Z,26.57
2019-02-25T06:01:01.446Z,27.20
2019-02-25T06:03:32.045Z,28.57
2019-02-25T06:06:02.463Z,28.70
2019-02-25T06:08:32.851Z,29.23
2019-02-25T06:11:03.310Z,29.57
2019-02-25T06:13:33.770Z,28.27
2019-02-25T06:16:04.144Z,30.07
2019-02-25T06:18:36.293Z,28.38
2019-02-25T06:21:06.686Z,30.13
2019-02-25T06:23:37.214Z,31.93
2019-02-25T06:26:07.664Z,32.67
2019-02-25T06:28:38.211Z,32.63
2019-02-25T06:31:08.585Z,35.40
2019-02-25T06:33:39.052Z,37.23
2019-02-25T06:36:09.477Z,35.77
2019-02-25T06:38:39.893Z,34.57
2019-02-25T06:41:10.592Z,35.00
2019-02-25T06:43:41.042Z,35.13
2019-02-25T06:46:11.452Z,37.40
2019-02-25T06:48:42.174Z,37.70
2019-02-25T06:51:12.675Z,37.67
2019-02-25T06:53:43.205Z,35.40
2019-02-25T06:56:13.533Z,36.08
2019-02-25T06:58:43.923Z,32.57
2019-02-25T07:01:14.415Z,31.40
2019-02-25T07:03:46.652Z,30.77
2019-02-25T07:06:21.434Z,28.73
2019-02-25T07:09:13.635Z,30.03
2019-02-25T07:12:09.318Z,28.90
2019-02-25T07:14:44.579Z,27.60
2019-02-25T07:17:34.250Z,26.60
2019-02-25T07:20:17.804Z,25.40
2019-02-25T07:23:10.224Z,25.73
2019-02-25T07:25:59.588Z,25.05
2019-02-25T07:28:54.760Z,22.50
2019-02-25T07:31:43.501Z,22.17
2019-02-25T07:34:20.188Z,22.20
2019-02-25T07:37:08.159Z,22.30
2019-02-25T07:39:50.646Z,23.17
2019-02-25T07:42:35.662Z,22.70
2019-02-25T07:45:15.012Z,22.00
2019-02-25T07:47:53.986Z,22.77
2019-02-25T07:50:55.335Z,22.17
2019-02-25T07:53:48.643Z,22.40
2019-02-25T07:56:33.289Z,22.30
2019-02-25T07:59:12.655Z,21.35
2019-02-25T08:01:57.488Z,22.20
2019-02-25T08:04:39.004Z,22.67
2019-02-25T08:07:28.332Z,20.53
2019-02-25T08:10:24.081Z,22.50
2019-02-25T08:13:04.765Z,22.87
2019-02-25T08:15:43.614Z,22.80
2019-02-25T08:18:22.199Z,22.03
2019-02-25T08:21:00.092Z,23.38
2019-02-25T08:23:41.453Z,22.73
2019-02-25T08:26:30.741Z,23.02
2019-02-25T08:29:18.602Z,22.37
2019-02-25T08:32:23.978Z,23.67
2019-02-25T08:35:19.216Z,23.90
2019-02-25T08:38:24.823Z,24.07
2019-02-25T08:41:26.806Z,24.57
2019-02-25T08:44:08.626Z,26.10
2019-02-25T08:47:03.134Z,26.13
2019-02-25T08:49:40.477Z,25.83
2019-02-25T08:52:10.987Z,25.60
2019-02-25T08:54:41.456Z,26.27
2019-02-25T08:57:12.055Z,25.37
2019-02-25T08:59:42.924Z,26.12
2019-02-25T09:02:13.564Z,26.35
2019-02-25T09:04:44.076Z,26.90
2019-02-25T09:07:14.474Z,26.25
2019-02-25T09:09:45.050Z,26.37
2019-02-25T09:12:15.496Z,27.35
2019-02-25T09:14:46.017Z,26.37
2019-02-25T09:17:16.498Z,27.58
2019-02-25T09:19:47.033Z,27.13
2019-02-25T09:22:17.454Z,26.80
2019-02-25T09:24:47.958Z,27.17
2019-02-25T09:27:18.661Z,28.05
2019-02-25T09:29:49.110Z,26.90
2019-02-25T09:32:19.636Z,26.50
2019-02-25T09:34:50.119Z,27.27
2019-02-25T09:37:20.591Z,26.33
2019-02-25T09:39:52.020Z,25.70
2019-02-25T09:42:22.802Z,27.27
2019-02-25T09:44:53.232Z,27.33
2019-02-25T09:47:23.741Z,26.77
2019-02-25T09:49:54.273Z,28.27
2019-02-25T09:52:24.759Z,26.83
2019-02-25T09:54:55.365Z,27.23
2019-02-25T09:57:25.833Z,27.37
2019-02-25T09:59:56.429Z,26.70
2019-02-25T10:02:27.116Z,28.03
2019-02-25T10:04:57.600Z,26.57
2019-02-25T10:07:28.014Z,27.97
2019-02-25T10:09:58.885Z,24.37
2019-02-25T10:12:29.357Z,27.50
2019-02-25T10:14:59.859Z,27.33
2019-02-25T10:17:30.330Z,25.40
2019-02-25T10:20:00.872Z,25.48
2019-02-25T10:22:32.848Z,24.43
2019-02-25T10:25:05.126Z,25.80
2019-02-25T10:27:35.630Z,23.93
2019-02-25T10:30:08.874Z,25.13
2019-02-25T10:32:39.313Z,26.07
2019-02-25T10:35:11.119Z,24.33
2019-02-25T10:37:43.826Z,24.97
2019-02-25T10:40:15.547Z,25.13
2019-02-25T10:42:46.736Z,26.50
2019-02-25T10:45:17.842Z,25.27
2019-02-25T10:47:49.464Z,24.90
2019-02-25T10:50:21.055Z,24.90
2019-02-25T10:52:51.703Z,25.97
2019-02-25T10:55:34.129Z,26.17
2019-02-25T10:58:06.185Z,27.02
2019-02-25T11:00:39.442Z,25.50
2019-02-25T11:03:10.722Z,26.40
2019-02-25T11:05:42.792Z,24.20
2019-02-25T11:08:15.091Z,24.32
2019-02-25T11:10:55.747Z,25.03
2019-02-25T11:13:27.625Z,24.33
2019-02-25T11:15:58.302Z,24.40
2019-02-25T11:18:28.929Z,24.13
2019-02-25T11:21:01.182Z,25.10
2019-02-25T11:23:31.484Z,24.00
2019-02-25T11:26:02.265Z,23.90
2019-02-25T11:28:35.639Z,24.00
2019-02-25T11:31:05.688Z,24.72
2019-02-25T11:33:36.078Z,23.03
2019-02-25T11:36:06.599Z,25.90
2019-02-25T11:38:37.464Z,25.13
2019-02-25T11:41:09.484Z,24.37
2019-02-25T11:43:40.082Z,23.30
2019-02-25T11:46:10.829Z,25.03
2019-02-25T11:48:41.318Z,23.77
2019-02-25T11:51:11.744Z,24.92
2019-02-25T11:53:42.240Z,24.37
2019-02-25T11:56:12.783Z,24.63
2019-02-25T11:58:43.273Z,24.37
2019-02-25T12:01:13.889Z,23.50
2019-02-25T12:03:44.460Z,23.50
2019-02-25T12:06:14.958Z,25.55
2019-02-25T12:08:45.549Z,24.27
2019-02-25T12:11:17.127Z,23.50
2019-02-25T12:13:49.594Z,23.67
2019-02-25T12:16:21.736Z,23.40
2019-02-25T12:18:52.208Z,24.23
2019-02-25T12:21:22.770Z,22.43
2019-02-25T12:23:53.306Z,20.67
2019-02-25T12:26:23.903Z,21.43
2019-02-25T12:28:54.463Z,21.80
2019-02-25T12:31:25.109Z,23.07
2019-02-25T12:33:55.465Z,19.90
2019-02-25T12:36:25.917Z,23.00
2019-02-25T12:38:56.441Z,22.87
2019-02-25T12:41:27.398Z,22.13
2019-02-25T12:43:57.804Z,22.83
2019-02-25T12:46:28.254Z,22.77
2019-02-25T12:48:59.590Z,19.97
2019-02-25T12:51:30.118Z,22.33
2019-02-25T12:54:00.519Z,21.30
2019-02-25T12:56:31.252Z,24.10
2019-02-25T12:59:01.727Z,23.87
2019-02-25T13:01:32.307Z,22.47
2019-02-25T13:04:02.662Z,20.37
2019-02-25T13:06:33.132Z,20.40
2019-02-25T13:09:05.066Z,22.30
2019-02-25T13:11:37.115Z,23.50
2019-02-25T13:14:07.454Z,24.60
2019-02-25T13:16:38.227Z,25.87
2019-02-25T13:19:08.633Z,26.23
2019-02-25T13:21:39.112Z,26.37
2019-02-25T13:24:09.970Z,23.50
2019-02-25T13:26:40.394Z,23.80
2019-02-25T13:29:10.804Z,23.67
2019-02-25T13:31:41.420Z,24.40
2019-02-25T13:34:11.846Z,21.25
2019-02-25T13:36:42.402Z,19.47
2019-02-25T13:39:13.073Z,20.40
2019-02-25T13:41:43.859Z,20.53
2019-02-25T13:44:14.232Z,22.50
2019-02-25T13:46:44.680Z,26.33
2019-02-25T13:49:15.355Z,26.47
2019-02-25T13:51:45.950Z,26.27
2019-02-25T13:54:16.459Z,26.50
2019-02-25T13:56:46.929Z,26.20
2019-02-25T13:59:17.420Z,27.17
2019-02-25T14:01:47.832Z,25.63
2019-02-25T14:04:18.263Z,25.65
2019-02-25T14:06:48.992Z,24.90
2019-02-25T14:09:19.408Z,25.27
2019-02-25T14:11:50.814Z,24.43
2019-02-25T14:14:21.440Z,25.82
2019-02-25T14:16:51.963Z,26.40
2019-02-25T14:19:22.385Z,26.07
2019-02-25T14:21:52.819Z,24.13
2019-02-25T14:24:23.785Z,25.00
2019-02-25T14:26:54.630Z,24.50
2019-02-25T14:29:26.475Z,26.80
2019-02-25T14:31:57.967Z,26.00
2019-02-25T14:34:28.666Z,25.37
2019-02-25T14:36:59.852Z,25.83
2019-02-25T14:39:32.952Z,24.83
2019-02-25T14:42:04.281Z,26.00
2019-02-25T14:44:37.903Z,26.70
2019-02-25T14:47:19.822Z,26.57
2019-02-25T14:49:42.782Z,25.07
2019-02-25T14:52:12.764Z,25.32
2019-02-25T14:54:43.287Z,26.20
2019-02-25T14:57:15.590Z,27.15
2019-02-25T14:59:46.178Z,25.87
2019-02-25T15:02:16.881Z,26.30
2019-02-25T15:04:47.523Z,25.93
2019-02-25T15:07:18.166Z,26.73
2019-02-25T15:09:49.348Z,24.73
2019-02-25T15:12:20.750Z,27.17
2019-02-25T15:14:51.464Z,24.87
2019-02-25T15:17:22.806Z,25.32
2019-02-25T15:19:53.263Z,24.87
2019-02-25T15:22:28.026Z,25.53
2019-02-25T15:24:57.108Z,25.30
2019-02-25T15:27:28.371Z,25.13
2019-02-25T15:29:58.868Z,24.57
2019-02-25T15:32:29.549Z,24.77
2019-02-25T15:35:01.483Z,25.43
2019-02-25T15:37:32.034Z,25.57
2019-02-25T15:40:03.921Z,27.17
2019-02-25T15:42:37.202Z,25.63
2019-02-25T15:45:08.671Z,26.47
2019-02-25T15:47:40.014Z,25.93
2019-02-25T15:50:14.690Z,26.93
2019-02-25T15:52:45.648Z,26.63
2019-02-25T15:55:19.517Z,28.90
2019-02-25T15:57:50.410Z,27.07
2019-02-25T16:00:23.471Z,28.20
2019-02-25T16:02:55.849Z,28.50
2019-02-25T16:05:29.570Z,29.37
2019-02-25T16:08:00.613Z,30.00
2019-02-25T16:10:32.086Z,30.72
2019-02-25T16:13:08.239Z,30.93
2019-02-25T16:15:35.312Z,31.40
2019-02-25T16:18:05.785Z,32.73
2019-02-25T16:20:36.422Z,32.33
2019-02-25T16:23:09.469Z,30.53
2019-02-25T16:25:39.822Z,32.23
2019-02-25T16:28:12.572Z,32.50
2019-02-25T16:30:44.540Z,33.20
2019-02-25T16:33:15.050Z,32.30
2019-02-25T16:35:46.198Z,33.17
2019-02-25T16:38:16.842Z,34.07
2019-02-25T16:40:47.648Z,33.73
2019-02-25T16:43:18.935Z,33.87
2019-02-25T16:45:49.521Z,33.97
2019-02-25T16:48:23.636Z,35.98
2019-02-25T16:50:52.963Z,34.90
2019-02-25T16:53:23.530Z,35.30
2019-02-25T16:55:54.286Z,36.03
2019-02-25T16:58:25.466Z,35.10
2019-02-25T17:00:58.549Z,36.90
2019-02-25T17:03:31.650Z,36.73
2019-02-25T17:06:04.113Z,37.30
2019-02-25T17:08:34.555Z,36.33
2019-02-25T17:11:05.974Z,36.63
2019-02-25T17:13:37.105Z,36.77
2019-02-25T17:16:17.895Z,37.50
2019-02-25T17:18:41.089Z,37.70
2019-02-25T17:21:11.862Z,37.33
2019-02-25T17:23:42.302Z,39.10
2019-02-25T17:26:14.955Z,39.77
2019-02-25T17:28:45.391Z,39.37
2019-02-25T17:31:16.336Z,40.23
2019-02-25T17:33:49.285Z,42.40
2019-02-25T17:36:20.309Z,41.43
2019-02-25T17:38:51.974Z,41.60
2019-02-25T17:41:23.544Z,42.67
2019-02-25T17:43:54.881Z,41.30
2019-02-25T17:46:28.850Z,42.03
2019-02-25T17:48:58.963Z,41.63
2019-02-25T17:51:29.498Z,42.67
2019-02-25T17:54:00.131Z,44.17
2019-02-25T17:56:30.587Z,44.40
2019-02-25T17:59:03.782Z,45.47
2019-02-25T18:01:34.526Z,45.03
2019-02-25T18:04:07.141Z,44.17
2019-02-25T18:06:41.456Z,44.53
2019-02-25T18:09:14.262Z,44.67
2019-02-25T18:11:45.395Z,45.53
2019-02-25T18:14:17.611Z,46.30
2019-02-25T18:16:50.823Z,46.43
2019-02-25T18:19:22.616Z,48.90
2019-02-25T18:21:53.178Z,48.50
2019-02-25T18:24:26.794Z,47.20
2019-02-25T18:26:55.899Z,49.70
2019-02-25T18:29:26.402Z,48.57
2019-02-25T18:31:57.139Z,49.73
2019-02-25T18:34:28.044Z,53.23
2019-02-25T18:36:59.691Z,54.00
2019-02-25T18:39:31.621Z,55.03
2019-02-25T18:42:02.236Z,58.27
2019-02-25T18:44:32.598Z,58.83
2019-02-25T18:47:03.000Z,58.03
2019-02-25T18:49:35.016Z,57.30
2019-02-25T18:52:05.995Z,59.35
2019-02-25T18:54:36.921Z,56.47
2019-02-25T18:57:08.015Z,57.07
2019-02-25T18:59:38.477Z,58.97
2019-02-25T19:02:10.291Z,62.67
2019-02-25T19:04:41.788Z,59.80
2019-02-25T19:07:13.412Z,63.30
2019-02-25T19:09:45.241Z,66.40
2019-02-25T19:12:16.898Z,66.00
2019-02-25T19:14:51.070Z,67.97
2019-02-25T19:17:21.046Z,66.77
2019-02-25T19:19:51.720Z,67.20
2019-02-25T19:22:24.579Z,69.80
2019-02-25T19:24:55.064Z,69.23
2019-02-25T19:27:27.777Z,69.13
2019-02-25T19:30:00.705Z,65.73
2019-02-25T19:32:31.389Z,67.37
2019-02-25T19:35:04.022Z,70.07
2019-02-25T19:37:37.687Z,69.37
2019-02-25T19:40:12.135Z,69.23
2019-02-25T19:42:39.819Z,68.03
2019-02-25T19:45:10.896Z,71.87
2019-02-25T19:47:43.282Z,72.07
2019-02-25T19:50:14.846Z,72.90
2019-02-25T19:52:46.687Z,70.83
2019-02-25T19:55:18.388Z,73.50
2019-02-25T19:57:50.265Z,72.20
2019-02-25T20:00:25.724Z,74.22
2019-02-25T20:03:05.125Z,71.97
2019-02-25T20:05:29.260Z,70.20
2019-02-25T20:07:59.741Z,75.37
2019-02-25T20:10:30.747Z,74.63
2019-02-25T20:13:01.087Z,76.10
2019-02-25T20:15:31.679Z,76.50
2019-02-25T20:18:02.157Z,78.83
2019-02-25T20:20:36.435Z,78.50
2019-02-25T20:23:08.568Z,72.97
2019-02-25T20:25:44.447Z,76.90
2019-02-25T20:28:15.845Z,77.63
2019-02-25T20:30:46.896Z,74.17
2019-02-25T20:33:18.300Z,76.00
2019-02-25T20:35:53.056Z,77.13
2019-02-25T20:38:22.800Z,77.10
2019-02-25T20:40:55.359Z,75.85
2019-02-25T20:43:28.262Z,73.47
2019-02-25T20:46:02.911Z,74.30
2019-02-25T20:48:32.679Z,72.43
2019-02-25T20:51:04.762Z,72.63
2019-02-25T20:53:37.681Z,73.53
2019-02-25T20:56:07.736Z,72.93
2019-02-25T20:58:40.039Z,71.20
2019-02-25T21:01:12.110Z,71.92
2019-02-25T21:03:45.825Z,71.07
2019-02-25T21:06:16.740Z,71.17
2019-02-25T21:08:47.160Z,72.90
2019-02-25T21:11:17.656Z,74.70
2019-02-25T21:13:48.177Z,71.33
2019-02-25T21:16:18.787Z,73.22
2019-02-25T21:18:50.926Z,70.97
2019-02-25T21:21:21.287Z,73.07
2019-02-25T21:23:51.820Z,69.23
2019-02-25T21:26:25.471Z,69.97
2019-02-25T21:28:57.896Z,70.00
2019-02-25T21:31:26.671Z,73.40
2019-02-25T21:33:58.786Z,72.63
2019-02-25T21:36:29.555Z,74.20
2019-02-25T21:39:01.880Z,75.20
2019-02-25T21:41:35.017Z,72.03
2019-02-25T21:44:06.125Z,77.83
2019-02-25T21:46:36.549Z,77.93
2019-02-25T21:49:08.412Z,77.37
2019-02-25T21:51:39.952Z,75.63
2019-02-25T21:54:11.353Z,71.73
2019-02-25T21:56:41.830Z,77.50
2019-02-25T21:59:14.975Z,78.53
2019-02-25T22:01:45.582Z,79.37
2019-02-25T22:04:18.056Z,76.80
2019-02-25T22:06:51.002Z,75.50
2019-02-25T22:09:35.460Z,70.20
2019-02-25T22:11:52.552Z,71.93
2019-02-25T22:14:25.513Z,70.28
2019-02-25T22:16:56.603Z,71.97
2019-02-25T22:19:27.644Z,69.80
2019-02-25T22:22:00.236Z,70.97
2019-02-25T22:24:32.079Z,72.37
2019-02-25T22:27:02.465Z,69.80
2019-02-25T22:29:34.872Z,68.17
2019-02-25T22:32:06.492Z,69.37
2019-02-25T22:34:37.935Z,67.53
2019-02-25T22:37:12.397Z,69.13
2019-02-25T22:39:40.993Z,68.10
2019-02-25T22:42:12.188Z,64.07
2019-02-25T22:44:45.154Z,65.33
2019-02-25T22:47:17.816Z,64.15
2019-02-25T22:49:47.855Z,61.37
2019-02-25T22:52:21.840Z,62.62
2019-02-25T22:54:52.139Z,63.27
2019-02-25T22:57:23.631Z,66.77
2019-02-25T22:59:55.288Z,64.00
2019-02-25T23:02:28.049Z,61.88
2019-02-25T23:04:59.780Z,58.90
2019-02-25T23:07:30.374Z,60.03
2019-02-25T23:10:01.174Z,62.03
2019-02-25T23:12:31.897Z,60.97
2019-02-25T23:15:03.849Z,63.07
2019-02-25T23:17:37.574Z,61.53
2019-02-25T23:20:09.523Z,63.10
2019-02-25T23:22:39.920Z,63.50
2019-02-25T23:25:11.567Z,64.05
2019-02-25T23:27:42.085Z,64.60
2019-02-25T23:30:13.778Z,61.83
2019-02-25T23:32:44.408Z,61.30
2019-02-25T23:35:16.471Z,62.38
2019-02-25T23:37:51.045Z,63.60
2019-02-25T23:40:19.748Z,63.53
2019-02-25T23:42:51.288Z,61.10
2019-02-25T23:45:23.171Z,61.03
2019-02-25T23:47:57.612Z,60.13
2019-02-25T23:50:27.947Z,58.03
2019-02-25T23:52:57.982Z,59.67
2019-02-25T23:55:29.662Z,57.90
2019-02-25T23:58:00.207Z,58.50
